sensor_id;sensor_type;location;lat;lon;timestamp;temperature;humidity
51383;DHT22;37475;43.358;1.248;2023-05-07T00:01:59;15.90;94.90
51383;DHT22;37475;43.358;1.248;2023-05-07T00:04:25;15.90;95.00
51383;DHT22;37475;43.358;1.248;2023-05-07T00:06:52;15.90;95.00
51383;DHT22;37475;43.358;1.248;2023-05-07T00:09:18;15.90;95.10
51383;DHT22;37475;43.358;1.248;2023-05-07T00:11:43;15.90;95.10
51383;DHT22;37475;43.358;1.248;2023-05-07T00:14:09;15.90;95.00
51383;DHT22;37475;43.358;1.248;2023-05-07T00:16:35;15.80;95.00
51383;DHT22;37475;43.358;1.248;2023-05-07T00:19:01;15.90;95.00
51383;DHT22;37475;43.358;1.248;2023-05-07T00:21:27;15.90;95.00
51383;DHT22;37475;43.358;1.248;2023-05-07T00:23:53;16.00;95.00
51383;DHT22;37475;43.358;1.248;2023-05-07T00:26:20;16.00;94.90
51383;DHT22;37475;43.358;1.248;2023-05-07T00:28:46;16.00;94.90
51383;DHT22;37475;43.358;1.248;2023-05-07T00:31:12;15.90;94.80
51383;DHT22;37475;43.358;1.248;2023-05-07T00:33:38;16.00;94.90
51383;DHT22;37475;43.358;1.248;2023-05-07T00:36:04;16.00;95.00
51383;DHT22;37475;43.358;1.248;2023-05-07T00:38:30;16.00;95.00
51383;DHT22;37475;43.358;1.248;2023-05-07T00:40:56;15.90;95.10
51383;DHT22;37475;43.358;1.248;2023-05-07T00:43:21;15.90;95.10
51383;DHT22;37475;43.358;1.248;2023-05-07T00:45:47;15.90;95.20
51383;DHT22;37475;43.358;1.248;2023-05-07T00:48:13;16.00;95.10
51383;DHT22;37475;43.358;1.248;2023-05-07T00:50:39;15.90;95.00
51383;DHT22;37475;43.358;1.248;2023-05-07T00:53:06;15.80;95.00
51383;DHT22;37475;43.358;1.248;2023-05-07T00:55:32;15.70;95.00
51383;DHT22;37475;43.358;1.248;2023-05-07T00:57:58;15.70;94.80
51383;DHT22;37475;43.358;1.248;2023-05-07T01:00:24;15.70;94.70
51383;DHT22;37475;43.358;1.248;2023-05-07T01:02:50;15.70;94.60
51383;DHT22;37475;43.358;1.248;2023-05-07T01:05:18;15.70;94.70
51383;DHT22;37475;43.358;1.248;2023-05-07T01:07:44;15.70;94.70
51383;DHT22;37475;43.358;1.248;2023-05-07T01:10:11;15.70;94.60
51383;DHT22;37475;43.358;1.248;2023-05-07T01:12:39;15.60;94.50
51383;DHT22;37475;43.358;1.248;2023-05-07T01:15:06;15.60;94.50
51383;DHT22;37475;43.358;1.248;2023-05-07T01:17:39;15.60;94.50
51383;DHT22;37475;43.358;1.248;2023-05-07T01:20:06;15.50;94.50
51383;DHT22;37475;43.358;1.248;2023-05-07T01:22:34;15.50;94.50
51383;DHT22;37475;43.358;1.248;2023-05-07T01:25:05;15.60;94.50
51383;DHT22;37475;43.358;1.248;2023-05-07T01:27:33;15.50;94.60
51383;DHT22;37475;43.358;1.248;2023-05-07T01:29:59;15.40;94.60
51383;DHT22;37475;43.358;1.248;2023-05-07T01:32:50;15.50;94.70
51383;DHT22;37475;43.358;1.248;2023-05-07T01:35:20;15.50;94.80
51383;DHT22;37475;43.358;1.248;2023-05-07T01:37:48;15.50;94.70
51383;DHT22;37475;43.358;1.248;2023-05-07T01:40:14;15.50;94.70
51383;DHT22;37475;43.358;1.248;2023-05-07T01:42:43;15.40;94.60
51383;DHT22;37475;43.358;1.248;2023-05-07T01:45:09;15.50;94.60
51383;DHT22;37475;43.358;1.248;2023-05-07T01:47:36;15.50;94.60
51383;DHT22;37475;43.358;1.248;2023-05-07T01:50:06;15.50;94.60
51383;DHT22;37475;43.358;1.248;2023-05-07T01:52:34;15.40;94.50
51383;DHT22;37475;43.358;1.248;2023-05-07T01:55:00;15.50;94.50
51383;DHT22;37475;43.358;1.248;2023-05-07T01:57:25;15.50;94.50
51383;DHT22;37475;43.358;1.248;2023-05-07T01:59:51;15.60;94.40
51383;DHT22;37475;43.358;1.248;2023-05-07T02:02:17;15.50;94.30
51383;DHT22;37475;43.358;1.248;2023-05-07T02:04:43;15.60;94.20
51383;DHT22;37475;43.358;1.248;2023-05-07T02:07:08;15.60;94.20
51383;DHT22;37475;43.358;1.248;2023-05-07T02:09:35;15.50;94.00
51383;DHT22;37475;43.358;1.248;2023-05-07T02:12:01;15.60;94.00
51383;DHT22;37475;43.358;1.248;2023-05-07T02:14:27;15.70;93.90
51383;DHT22;37475;43.358;1.248;2023-05-07T02:16:53;15.70;94.00
51383;DHT22;37475;43.358;1.248;2023-05-07T02:19:18;15.80;94.00
51383;DHT22;37475;43.358;1.248;2023-05-07T02:21:46;15.80;94.00
51383;DHT22;37475;43.358;1.248;2023-05-07T02:24:13;15.80;93.90
51383;DHT22;37475;43.358;1.248;2023-05-07T02:26:40;15.70;93.60
51383;DHT22;37475;43.358;1.248;2023-05-07T02:29:06;15.70;93.50
51383;DHT22;37475;43.358;1.248;2023-05-07T02:31:32;15.70;93.50
51383;DHT22;37475;43.358;1.248;2023-05-07T02:33:59;15.80;93.30
51383;DHT22;37475;43.358;1.248;2023-05-07T02:36:25;15.80;93.10
51383;DHT22;37475;43.358;1.248;2023-05-07T02:38:52;15.80;93.00
51383;DHT22;37475;43.358;1.248;2023-05-07T02:41:18;15.60;92.60
51383;DHT22;37475;43.358;1.248;2023-05-07T02:43:43;15.30;93.10
51383;DHT22;37475;43.358;1.248;2023-05-07T02:46:09;15.00;93.70
51383;DHT22;37475;43.358;1.248;2023-05-07T02:48:36;15.00;94.20
51383;DHT22;37475;43.358;1.248;2023-05-07T02:51:02;14.90;94.40
51383;DHT22;37475;43.358;1.248;2023-05-07T02:53:28;14.90;94.60
51383;DHT22;37475;43.358;1.248;2023-05-07T02:55:59;14.90;94.70
51383;DHT22;37475;43.358;1.248;2023-05-07T02:58:26;14.90;94.90
51383;DHT22;37475;43.358;1.248;2023-05-07T03:00:52;14.90;94.90
51383;DHT22;37475;43.358;1.248;2023-05-07T03:03:20;14.90;95.00
51383;DHT22;37475;43.358;1.248;2023-05-07T03:05:46;15.00;95.30
51383;DHT22;37475;43.358;1.248;2023-05-07T03:08:12;14.90;95.20
51383;DHT22;37475;43.358;1.248;2023-05-07T03:10:38;14.90;95.40
51383;DHT22;37475;43.358;1.248;2023-05-07T03:13:04;14.90;95.30
51383;DHT22;37475;43.358;1.248;2023-05-07T03:15:30;14.90;95.30
51383;DHT22;37475;43.358;1.248;2023-05-07T03:17:56;14.90;95.40
51383;DHT22;37475;43.358;1.248;2023-05-07T03:20:22;14.90;95.40
51383;DHT22;37475;43.358;1.248;2023-05-07T03:22:48;14.80;95.30
51383;DHT22;37475;43.358;1.248;2023-05-07T03:25:13;14.90;95.30
51383;DHT22;37475;43.358;1.248;2023-05-07T03:27:40;14.80;95.10
51383;DHT22;37475;43.358;1.248;2023-05-07T03:30:07;14.90;95.10
51383;DHT22;37475;43.358;1.248;2023-05-07T03:32:34;14.80;95.00
51383;DHT22;37475;43.358;1.248;2023-05-07T03:35:03;14.80;94.70
51383;DHT22;37475;43.358;1.248;2023-05-07T03:37:30;14.80;94.70
51383;DHT22;37475;43.358;1.248;2023-05-07T03:39:55;14.90;94.80
51383;DHT22;37475;43.358;1.248;2023-05-07T03:42:21;15.00;94.80
51383;DHT22;37475;43.358;1.248;2023-05-07T03:44:47;14.90;94.60
51383;DHT22;37475;43.358;1.248;2023-05-07T03:47:13;14.90;94.70
51383;DHT22;37475;43.358;1.248;2023-05-07T03:49:39;14.80;94.70
51383;DHT22;37475;43.358;1.248;2023-05-07T03:52:05;14.80;94.80
51383;DHT22;37475;43.358;1.248;2023-05-07T03:54:32;14.80;94.80
51383;DHT22;37475;43.358;1.248;2023-05-07T03:56:57;14.80;94.90
51383;DHT22;37475;43.358;1.248;2023-05-07T03:59:23;14.80;94.80
51383;DHT22;37475;43.358;1.248;2023-05-07T04:01:49;14.80;94.90
51383;DHT22;37475;43.358;1.248;2023-05-07T04:04:15;14.80;94.90
51383;DHT22;37475;43.358;1.248;2023-05-07T04:06:41;14.80;94.90
51383;DHT22;37475;43.358;1.248;2023-05-07T04:09:07;14.70;94.90
51383;DHT22;37475;43.358;1.248;2023-05-07T04:11:33;14.70;95.00
51383;DHT22;37475;43.358;1.248;2023-05-07T04:14:00;14.70;95.00
51383;DHT22;37475;43.358;1.248;2023-05-07T04:16:26;14.60;95.00
51383;DHT22;37475;43.358;1.248;2023-05-07T04:18:52;14.70;95.00
51383;DHT22;37475;43.358;1.248;2023-05-07T04:21:19;14.70;95.00
51383;DHT22;37475;43.358;1.248;2023-05-07T04:23:47;14.60;95.00
51383;DHT22;37475;43.358;1.248;2023-05-07T04:26:13;14.70;95.00
51383;DHT22;37475;43.358;1.248;2023-05-07T04:28:40;14.60;94.70
51383;DHT22;37475;43.358;1.248;2023-05-07T04:31:06;14.70;94.70
51383;DHT22;37475;43.358;1.248;2023-05-07T04:33:32;14.70;94.60
51383;DHT22;37475;43.358;1.248;2023-05-07T04:36:02;14.70;94.60
51383;DHT22;37475;43.358;1.248;2023-05-07T04:38:30;14.70;94.70
51383;DHT22;37475;43.358;1.248;2023-05-07T04:40:57;14.70;94.60
51383;DHT22;37475;43.358;1.248;2023-05-07T04:43:24;14.70;94.80
51383;DHT22;37475;43.358;1.248;2023-05-07T04:45:51;14.70;94.70
51383;DHT22;37475;43.358;1.248;2023-05-07T04:48:17;14.70;94.70
51383;DHT22;37475;43.358;1.248;2023-05-07T04:50:47;14.90;94.70
51383;DHT22;37475;43.358;1.248;2023-05-07T04:53:13;14.90;94.70
51383;DHT22;37475;43.358;1.248;2023-05-07T04:55:39;14.90;94.70
51383;DHT22;37475;43.358;1.248;2023-05-07T04:58:04;14.80;94.70
51383;DHT22;37475;43.358;1.248;2023-05-07T05:00:30;14.80;94.60
51383;DHT22;37475;43.358;1.248;2023-05-07T05:02:56;14.90;94.70
51383;DHT22;37475;43.358;1.248;2023-05-07T05:05:22;14.90;94.70
51383;DHT22;37475;43.358;1.248;2023-05-07T05:07:48;14.90;94.70
51383;DHT22;37475;43.358;1.248;2023-05-07T05:10:13;15.00;94.60
51383;DHT22;37475;43.358;1.248;2023-05-07T05:12:39;14.90;94.50
51383;DHT22;37475;43.358;1.248;2023-05-07T05:15:05;14.80;94.60
51383;DHT22;37475;43.358;1.248;2023-05-07T05:17:32;14.80;94.60
51383;DHT22;37475;43.358;1.248;2023-05-07T05:20:00;14.80;94.70
51383;DHT22;37475;43.358;1.248;2023-05-07T05:22:26;14.70;94.70
51383;DHT22;37475;43.358;1.248;2023-05-07T05:24:52;14.70;94.60
51383;DHT22;37475;43.358;1.248;2023-05-07T05:27:17;14.60;94.70
51383;DHT22;37475;43.358;1.248;2023-05-07T05:29:43;14.60;94.70
51383;DHT22;37475;43.358;1.248;2023-05-07T05:32:09;14.60;94.80
51383;DHT22;37475;43.358;1.248;2023-05-07T05:34:35;14.60;94.70
51383;DHT22;37475;43.358;1.248;2023-05-07T05:37:01;14.60;94.70
51383;DHT22;37475;43.358;1.248;2023-05-07T05:39:26;14.60;94.70
51383;DHT22;37475;43.358;1.248;2023-05-07T05:41:52;14.60;94.80
51383;DHT22;37475;43.358;1.248;2023-05-07T05:44:18;14.60;94.60
51383;DHT22;37475;43.358;1.248;2023-05-07T05:46:44;14.70;94.80
51383;DHT22;37475;43.358;1.248;2023-05-07T05:49:10;14.60;94.70
51383;DHT22;37475;43.358;1.248;2023-05-07T05:51:35;14.60;94.70
51383;DHT22;37475;43.358;1.248;2023-05-07T05:54:01;14.60;94.60
51383;DHT22;37475;43.358;1.248;2023-05-07T05:56:27;14.70;94.60
51383;DHT22;37475;43.358;1.248;2023-05-07T05:58:53;14.70;94.70
51383;DHT22;37475;43.358;1.248;2023-05-07T06:01:19;14.70;94.70
51383;DHT22;37475;43.358;1.248;2023-05-07T06:03:44;14.60;94.70
51383;DHT22;37475;43.358;1.248;2023-05-07T06:06:10;14.60;94.70
51383;DHT22;37475;43.358;1.248;2023-05-07T06:08:36;14.70;94.80
51383;DHT22;37475;43.358;1.248;2023-05-07T06:11:02;14.70;94.80
51383;DHT22;37475;43.358;1.248;2023-05-07T06:13:28;14.70;94.90
51383;DHT22;37475;43.358;1.248;2023-05-07T06:15:54;14.60;95.00
51383;DHT22;37475;43.358;1.248;2023-05-07T06:18:19;14.60;94.90
51383;DHT22;37475;43.358;1.248;2023-05-07T06:20:45;14.70;95.20
51383;DHT22;37475;43.358;1.248;2023-05-07T06:23:11;14.70;95.10
51383;DHT22;37475;43.358;1.248;2023-05-07T06:25:37;14.70;95.10
51383;DHT22;37475;43.358;1.248;2023-05-07T06:28:02;14.80;95.20
51383;DHT22;37475;43.358;1.248;2023-05-07T06:30:28;14.70;95.10
51383;DHT22;37475;43.358;1.248;2023-05-07T06:32:54;14.80;95.20
51383;DHT22;37475;43.358;1.248;2023-05-07T06:35:20;14.80;95.20
51383;DHT22;37475;43.358;1.248;2023-05-07T06:37:46;14.80;95.30
51383;DHT22;37475;43.358;1.248;2023-05-07T06:40:11;14.80;95.40
51383;DHT22;37475;43.358;1.248;2023-05-07T06:42:37;14.70;95.40
51383;DHT22;37475;43.358;1.248;2023-05-07T06:45:04;14.70;95.60
51383;DHT22;37475;43.358;1.248;2023-05-07T06:47:30;14.70;95.60
51383;DHT22;37475;43.358;1.248;2023-05-07T06:49:56;14.60;95.70
51383;DHT22;37475;43.358;1.248;2023-05-07T06:52:21;14.60;95.70
51383;DHT22;37475;43.358;1.248;2023-05-07T06:54:47;14.70;95.70
51383;DHT22;37475;43.358;1.248;2023-05-07T06:57:13;14.70;95.70
51383;DHT22;37475;43.358;1.248;2023-05-07T06:59:39;14.70;95.70
51383;DHT22;37475;43.358;1.248;2023-05-07T07:02:04;14.80;95.70
51383;DHT22;37475;43.358;1.248;2023-05-07T07:04:31;14.70;95.60
51383;DHT22;37475;43.358;1.248;2023-05-07T07:06:56;14.80;95.60
51383;DHT22;37475;43.358;1.248;2023-05-07T07:09:22;14.90;95.70
51383;DHT22;37475;43.358;1.248;2023-05-07T07:11:48;14.90;95.70
51383;DHT22;37475;43.358;1.248;2023-05-07T07:14:14;14.90;95.70
51383;DHT22;37475;43.358;1.248;2023-05-07T07:16:40;15.00;95.70
51383;DHT22;37475;43.358;1.248;2023-05-07T07:19:06;14.90;95.60
51383;DHT22;37475;43.358;1.248;2023-05-07T07:21:32;15.00;95.70
51383;DHT22;37475;43.358;1.248;2023-05-07T07:23:57;15.00;95.60
51383;DHT22;37475;43.358;1.248;2023-05-07T07:26:23;15.10;95.50
51383;DHT22;37475;43.358;1.248;2023-05-07T07:28:49;15.00;95.50
51383;DHT22;37475;43.358;1.248;2023-05-07T07:31:15;15.10;95.60
51383;DHT22;37475;43.358;1.248;2023-05-07T07:33:41;15.10;95.60
51383;DHT22;37475;43.358;1.248;2023-05-07T07:36:07;15.10;95.50
51383;DHT22;37475;43.358;1.248;2023-05-07T07:38:33;15.10;95.50
51383;DHT22;37475;43.358;1.248;2023-05-07T07:41:00;15.20;95.60
51383;DHT22;37475;43.358;1.248;2023-05-07T07:43:26;15.10;95.40
51383;DHT22;37475;43.358;1.248;2023-05-07T07:45:53;15.10;95.40
51383;DHT22;37475;43.358;1.248;2023-05-07T07:48:18;15.20;95.30
51383;DHT22;37475;43.358;1.248;2023-05-07T07:50:44;15.10;95.20
51383;DHT22;37475;43.358;1.248;2023-05-07T07:53:10;15.10;95.20
51383;DHT22;37475;43.358;1.248;2023-05-07T07:55:39;15.10;95.20
51383;DHT22;37475;43.358;1.248;2023-05-07T07:58:05;15.20;95.20
51383;DHT22;37475;43.358;1.248;2023-05-07T08:00:31;15.10;95.30
51383;DHT22;37475;43.358;1.248;2023-05-07T08:02:57;15.20;95.30
51383;DHT22;37475;43.358;1.248;2023-05-07T08:05:23;15.20;95.20
51383;DHT22;37475;43.358;1.248;2023-05-07T08:07:50;15.20;94.90
51383;DHT22;37475;43.358;1.248;2023-05-07T08:10:19;15.30;95.00
51383;DHT22;37475;43.358;1.248;2023-05-07T08:12:48;15.40;94.90
51383;DHT22;37475;43.358;1.248;2023-05-07T08:15:15;15.40;94.60
51383;DHT22;37475;43.358;1.248;2023-05-07T08:17:41;15.30;94.30
51383;DHT22;37475;43.358;1.248;2023-05-07T08:20:07;15.40;94.20
51383;DHT22;37475;43.358;1.248;2023-05-07T08:22:37;15.50;94.10
51383;DHT22;37475;43.358;1.248;2023-05-07T08:25:03;15.50;93.80
51383;DHT22;37475;43.358;1.248;2023-05-07T08:27:29;15.60;93.80
51383;DHT22;37475;43.358;1.248;2023-05-07T08:29:55;15.80;93.80
51383;DHT22;37475;43.358;1.248;2023-05-07T08:32:21;15.70;93.30
51383;DHT22;37475;43.358;1.248;2023-05-07T08:34:47;15.70;93.90
51383;DHT22;37475;43.358;1.248;2023-05-07T08:37:13;15.70;93.40
51383;DHT22;37475;43.358;1.248;2023-05-07T08:39:39;15.80;93.50
51383;DHT22;37475;43.358;1.248;2023-05-07T08:42:05;15.70;93.50
51383;DHT22;37475;43.358;1.248;2023-05-07T08:44:35;15.70;93.10
51383;DHT22;37475;43.358;1.248;2023-05-07T08:47:01;15.70;93.20
51383;DHT22;37475;43.358;1.248;2023-05-07T08:49:28;15.80;93.10
51383;DHT22;37475;43.358;1.248;2023-05-07T08:51:54;16.00;93.10
51383;DHT22;37475;43.358;1.248;2023-05-07T08:54:21;16.10;93.00
51383;DHT22;37475;43.358;1.248;2023-05-07T08:56:47;16.10;92.50
51383;DHT22;37475;43.358;1.248;2023-05-07T08:59:13;16.10;91.90
51383;DHT22;37475;43.358;1.248;2023-05-07T09:01:39;16.10;91.50
51383;DHT22;37475;43.358;1.248;2023-05-07T09:04:05;16.10;90.80
51383;DHT22;37475;43.358;1.248;2023-05-07T09:06:33;16.10;91.10
51383;DHT22;37475;43.358;1.248;2023-05-07T09:09:00;16.50;91.10
51383;DHT22;37475;43.358;1.248;2023-05-07T09:11:26;16.50;90.50
51383;DHT22;37475;43.358;1.248;2023-05-07T09:13:57;16.30;90.60
51383;DHT22;37475;43.358;1.248;2023-05-07T09:16:25;16.20;91.00
51383;DHT22;37475;43.358;1.248;2023-05-07T09:18:52;16.10;90.50
51383;DHT22;37475;43.358;1.248;2023-05-07T09:21:18;16.20;90.20
51383;DHT22;37475;43.358;1.248;2023-05-07T09:23:45;16.20;90.40
51383;DHT22;37475;43.358;1.248;2023-05-07T09:26:11;16.40;90.70
51383;DHT22;37475;43.358;1.248;2023-05-07T09:28:40;16.40;90.50
51383;DHT22;37475;43.358;1.248;2023-05-07T09:31:07;16.30;90.40
51383;DHT22;37475;43.358;1.248;2023-05-07T09:33:34;16.50;90.30
51383;DHT22;37475;43.358;1.248;2023-05-07T09:36:08;16.60;90.60
51383;DHT22;37475;43.358;1.248;2023-05-07T09:38:36;16.60;89.70
51383;DHT22;37475;43.358;1.248;2023-05-07T09:41:13;16.50;89.50
51383;DHT22;37475;43.358;1.248;2023-05-07T09:43:39;16.40;89.60
51383;DHT22;37475;43.358;1.248;2023-05-07T09:46:08;16.50;90.30
51383;DHT22;37475;43.358;1.248;2023-05-07T09:48:38;16.60;90.20
51383;DHT22;37475;43.358;1.248;2023-05-07T09:51:24;16.60;89.20
51383;DHT22;37475;43.358;1.248;2023-05-07T09:53:52;16.60;89.20
51383;DHT22;37475;43.358;1.248;2023-05-07T09:56:19;16.60;90.20
51383;DHT22;37475;43.358;1.248;2023-05-07T09:58:46;16.60;89.40
51383;DHT22;37475;43.358;1.248;2023-05-07T10:01:13;16.60;88.50
51383;DHT22;37475;43.358;1.248;2023-05-07T10:03:43;16.80;89.50
51383;DHT22;37475;43.358;1.248;2023-05-07T10:06:09;16.80;88.70
51383;DHT22;37475;43.358;1.248;2023-05-07T10:08:38;16.60;88.50
51383;DHT22;37475;43.358;1.248;2023-05-07T10:11:05;16.60;88.00
51383;DHT22;37475;43.358;1.248;2023-05-07T10:13:34;16.60;88.40
51383;DHT22;37475;43.358;1.248;2023-05-07T10:16:04;16.80;88.50
51383;DHT22;37475;43.358;1.248;2023-05-07T10:18:31;16.60;87.40
51383;DHT22;37475;43.358;1.248;2023-05-07T10:21:21;16.60;88.20
51383;DHT22;37475;43.358;1.248;2023-05-07T10:23:53;16.70;87.80
51383;DHT22;37475;43.358;1.248;2023-05-07T10:26:24;17.00;88.30
51383;DHT22;37475;43.358;1.248;2023-05-07T10:28:56;17.20;87.90
51383;DHT22;37475;43.358;1.248;2023-05-07T10:34:21;17.40;86.40
51383;DHT22;37475;43.358;1.248;2023-05-07T10:36:50;17.50;86.00
51383;DHT22;37475;43.358;1.248;2023-05-07T10:39:17;17.70;86.20
51383;DHT22;37475;43.358;1.248;2023-05-07T10:41:43;17.90;84.90
51383;DHT22;37475;43.358;1.248;2023-05-07T10:44:09;18.10;86.50
51383;DHT22;37475;43.358;1.248;2023-05-07T10:46:35;18.30;85.20
51383;DHT22;37475;43.358;1.248;2023-05-07T10:51:32;18.20;82.90
51383;DHT22;37475;43.358;1.248;2023-05-07T10:54:24;18.10;84.60
51383;DHT22;37475;43.358;1.248;2023-05-07T10:56:50;18.30;84.30
51383;DHT22;37475;43.358;1.248;2023-05-07T11:01:58;18.30;83.70
51383;DHT22;37475;43.358;1.248;2023-05-07T11:04:25;17.60;83.00
51383;DHT22;37475;43.358;1.248;2023-05-07T11:15:13;16.70;85.80
51383;DHT22;37475;43.358;1.248;2023-05-07T11:17:59;16.40;87.40
51383;DHT22;37475;43.358;1.248;2023-05-07T11:26:04;16.10;88.20
51383;DHT22;37475;43.358;1.248;2023-05-07T11:28:36;16.30;88.70
51383;DHT22;37475;43.358;1.248;2023-05-07T11:31:04;16.30;88.80
51383;DHT22;37475;43.358;1.248;2023-05-07T11:33:33;16.30;89.10
51383;DHT22;37475;43.358;1.248;2023-05-07T11:36:00;16.20;89.30
51383;DHT22;37475;43.358;1.248;2023-05-07T11:38:35;16.40;90.10
51383;DHT22;37475;43.358;1.248;2023-05-07T11:41:02;16.20;89.40
51383;DHT22;37475;43.358;1.248;2023-05-07T11:43:31;16.30;90.50
51383;DHT22;37475;43.358;1.248;2023-05-07T11:46:09;16.50;90.50
51383;DHT22;37475;43.358;1.248;2023-05-07T11:48:35;16.70;89.80
51383;DHT22;37475;43.358;1.248;2023-05-07T11:51:06;16.70;89.60
51383;DHT22;37475;43.358;1.248;2023-05-07T11:53:42;16.80;88.70
51383;DHT22;37475;43.358;1.248;2023-05-07T11:56:09;16.70;88.10
51383;DHT22;37475;43.358;1.248;2023-05-07T11:58:36;17.00;87.70
51383;DHT22;37475;43.358;1.248;2023-05-07T12:01:03;17.40;89.50
51383;DHT22;37475;43.358;1.248;2023-05-07T12:03:29;17.60;87.20
51383;DHT22;37475;43.358;1.248;2023-05-07T12:05:55;17.80;85.90
51383;DHT22;37475;43.358;1.248;2023-05-07T12:08:21;18.00;84.70
51383;DHT22;37475;43.358;1.248;2023-05-07T12:10:49;18.60;85.10
51383;DHT22;37475;43.358;1.248;2023-05-07T12:13:18;18.40;82.30
51383;DHT22;37475;43.358;1.248;2023-05-07T12:15:55;18.50;84.70
51383;DHT22;37475;43.358;1.248;2023-05-07T12:18:22;18.10;82.70
51383;DHT22;37475;43.358;1.248;2023-05-07T12:20:49;18.30;82.00
51383;DHT22;37475;43.358;1.248;2023-05-07T12:23:16;19.10;85.10
51383;DHT22;37475;43.358;1.248;2023-05-07T12:25:43;19.10;82.50
51383;DHT22;37475;43.358;1.248;2023-05-07T12:28:14;19.10;84.20
51383;DHT22;37475;43.358;1.248;2023-05-07T12:30:44;19.40;81.10
51383;DHT22;37475;43.358;1.248;2023-05-07T12:33:12;19.50;81.00
51383;DHT22;37475;43.358;1.248;2023-05-07T12:35:47;19.50;81.70
51383;DHT22;37475;43.358;1.248;2023-05-07T12:38:15;19.20;82.70
51383;DHT22;37475;43.358;1.248;2023-05-07T12:40:47;19.10;84.00
51383;DHT22;37475;43.358;1.248;2023-05-07T12:43:26;19.10;83.10
51383;DHT22;37475;43.358;1.248;2023-05-07T12:45:55;19.30;81.60
51383;DHT22;37475;43.358;1.248;2023-05-07T12:48:23;19.50;80.70
51383;DHT22;37475;43.358;1.248;2023-05-07T12:50:53;19.40;82.90
51383;DHT22;37475;43.358;1.248;2023-05-07T12:53:22;19.00;80.10
51383;DHT22;37475;43.358;1.248;2023-05-07T12:55:51;18.80;83.20
51383;DHT22;37475;43.358;1.248;2023-05-07T12:58:24;18.90;82.20
51383;DHT22;37475;43.358;1.248;2023-05-07T13:00:51;18.60;79.90
51383;DHT22;37475;43.358;1.248;2023-05-07T13:03:28;18.50;80.70
51383;DHT22;37475;43.358;1.248;2023-05-07T13:05:58;19.00;80.20
51383;DHT22;37475;43.358;1.248;2023-05-07T13:08:41;19.20;78.50
51383;DHT22;37475;43.358;1.248;2023-05-07T13:11:09;19.60;77.30
51383;DHT22;37475;43.358;1.248;2023-05-07T13:13:37;19.90;79.70
51383;DHT22;37475;43.358;1.248;2023-05-07T13:16:05;20.10;78.30
51383;DHT22;37475;43.358;1.248;2023-05-07T13:18:34;20.10;75.60
51383;DHT22;37475;43.358;1.248;2023-05-07T13:21:01;19.80;74.90
51383;DHT22;37475;43.358;1.248;2023-05-07T13:23:27;20.10;75.50
51383;DHT22;37475;43.358;1.248;2023-05-07T13:25:53;20.50;77.40
51383;DHT22;37475;43.358;1.248;2023-05-07T13:28:20;20.80;72.10
51383;DHT22;37475;43.358;1.248;2023-05-07T13:30:46;20.40;76.40
51383;DHT22;37475;43.358;1.248;2023-05-07T13:33:12;20.60;76.20
51383;DHT22;37475;43.358;1.248;2023-05-07T13:35:38;20.60;74.10
51383;DHT22;37475;43.358;1.248;2023-05-07T13:38:04;20.80;74.60
51383;DHT22;37475;43.358;1.248;2023-05-07T13:40:31;20.40;75.90
51383;DHT22;37475;43.358;1.248;2023-05-07T13:42:58;20.50;75.80
51383;DHT22;37475;43.358;1.248;2023-05-07T13:45:25;20.60;74.80
51383;DHT22;37475;43.358;1.248;2023-05-07T13:47:51;20.40;74.40
51383;DHT22;37475;43.358;1.248;2023-05-07T13:50:17;20.50;74.50
51383;DHT22;37475;43.358;1.248;2023-05-07T13:52:44;20.70;74.60
51383;DHT22;37475;43.358;1.248;2023-05-07T13:55:20;20.90;75.30
51383;DHT22;37475;43.358;1.248;2023-05-07T13:57:47;20.90;74.20
51383;DHT22;37475;43.358;1.248;2023-05-07T14:00:13;20.70;71.80
51383;DHT22;37475;43.358;1.248;2023-05-07T14:02:41;20.90;74.40
51383;DHT22;37475;43.358;1.248;2023-05-07T14:05:07;21.20;69.30
51383;DHT22;37475;43.358;1.248;2023-05-07T14:07:34;21.20;71.40
51383;DHT22;37475;43.358;1.248;2023-05-07T14:10:01;21.60;72.10
51383;DHT22;37475;43.358;1.248;2023-05-07T14:12:26;21.40;70.50
51383;DHT22;37475;43.358;1.248;2023-05-07T14:14:52;21.60;69.70
51383;DHT22;37475;43.358;1.248;2023-05-07T14:17:18;21.60;71.50
51383;DHT22;37475;43.358;1.248;2023-05-07T14:19:45;22.50;68.20
51383;DHT22;37475;43.358;1.248;2023-05-07T14:22:13;22.60;64.40
51383;DHT22;37475;43.358;1.248;2023-05-07T14:24:40;21.40;67.00
51383;DHT22;37475;43.358;1.248;2023-05-07T14:27:06;20.70;68.40
51383;DHT22;37475;43.358;1.248;2023-05-07T14:29:32;20.60;69.60
51383;DHT22;37475;43.358;1.248;2023-05-07T14:31:58;20.60;72.00
51383;DHT22;37475;43.358;1.248;2023-05-07T14:34:24;20.60;71.20
51383;DHT22;37475;43.358;1.248;2023-05-07T14:36:50;20.50;69.60
51383;DHT22;37475;43.358;1.248;2023-05-07T14:39:15;20.50;68.80
51383;DHT22;37475;43.358;1.248;2023-05-07T14:41:41;20.40;73.40
51383;DHT22;37475;43.358;1.248;2023-05-07T14:44:07;20.10;70.70
51383;DHT22;37475;43.358;1.248;2023-05-07T14:46:33;20.20;70.90
51383;DHT22;37475;43.358;1.248;2023-05-07T14:48:59;20.30;70.90
51383;DHT22;37475;43.358;1.248;2023-05-07T14:51:25;20.50;69.50
51383;DHT22;37475;43.358;1.248;2023-05-07T14:53:53;21.20;71.30
51383;DHT22;37475;43.358;1.248;2023-05-07T14:56:19;21.60;68.10
51383;DHT22;37475;43.358;1.248;2023-05-07T14:58:47;21.70;64.70
51383;DHT22;37475;43.358;1.248;2023-05-07T15:01:16;21.50;67.30
51383;DHT22;37475;43.358;1.248;2023-05-07T15:03:42;21.60;67.70
51383;DHT22;37475;43.358;1.248;2023-05-07T15:06:07;21.90;69.00
51383;DHT22;37475;43.358;1.248;2023-05-07T15:08:33;21.60;67.10
51383;DHT22;37475;43.358;1.248;2023-05-07T15:10:59;22.10;65.50
51383;DHT22;37475;43.358;1.248;2023-05-07T15:13:25;22.40;65.70
51383;DHT22;37475;43.358;1.248;2023-05-07T15:15:51;22.50;67.90
51383;DHT22;37475;43.358;1.248;2023-05-07T15:18:16;22.40;63.60
51383;DHT22;37475;43.358;1.248;2023-05-07T15:20:42;22.30;66.20
51383;DHT22;37475;43.358;1.248;2023-05-07T15:23:08;22.20;66.50
51383;DHT22;37475;43.358;1.248;2023-05-07T15:25:39;22.00;67.90
51383;DHT22;37475;43.358;1.248;2023-05-07T15:28:05;21.50;67.50
51383;DHT22;37475;43.358;1.248;2023-05-07T15:30:31;22.30;67.10
51383;DHT22;37475;43.358;1.248;2023-05-07T15:32:56;22.60;65.50
51383;DHT22;37475;43.358;1.248;2023-05-07T15:35:22;21.70;68.40
51383;DHT22;37475;43.358;1.248;2023-05-07T15:37:49;21.70;71.50
51383;DHT22;37475;43.358;1.248;2023-05-07T15:40:15;21.60;71.30
51383;DHT22;37475;43.358;1.248;2023-05-07T15:42:41;21.80;69.70
51383;DHT22;37475;43.358;1.248;2023-05-07T15:45:08;21.40;70.90
51383;DHT22;37475;43.358;1.248;2023-05-07T15:47:35;21.80;72.10
51383;DHT22;37475;43.358;1.248;2023-05-07T15:50:01;21.50;70.80
51383;DHT22;37475;43.358;1.248;2023-05-07T15:52:27;21.70;70.50